Time;durP1;ratioP1;P1;durP2;ratioP2;P2;SDS_P1;SDS_P2;PMS_P1;PMS_P2;Temp;Humidity;BMP_temperature;BMP_pressure;BME280_temperature;BME280_humidity;BME280_pressure;Samples;Min_cycle;Max_cycle;Signal;HPM_P1;HPM_P2
2023/09/06 00:00:29;;;;;;;3.63;3.33;;;22.60;56.60;;;;;;5056659;28;20205;-80
2023/09/06 00:02:57;;;;;;;3.95;3.55;;;22.60;56.70;;;;;;5056495;28;20191;-80
2023/09/06 00:05:24;;;;;;;4.22;3.83;;;22.50;56.70;;;;;;5058639;28;20688;-79
2023/09/06 00:07:51;;;;;;;4.45;3.70;;;22.60;56.90;;;;;;5057233;28;20199;-79
2023/09/06 00:10:19;;;;;;;4.13;3.72;;;22.60;56.80;;;;;;5059349;28;20191;-80
2023/09/06 00:12:46;;;;;;;3.90;3.50;;;22.50;56.70;;;;;;5058758;28;20192;-80
2023/09/06 00:15:14;;;;;;;3.80;3.50;;;22.50;56.90;;;;;;5059820;28;20219;-80
2023/09/06 00:17:41;;;;;;;4.15;3.40;;;22.50;56.90;;;;;;5059238;28;20207;-80
2023/09/06 00:20:19;;;;;;;4.25;3.80;;;22.40;56.90;;;;;;5057650;28;20210;-80
2023/09/06 00:22:46;;;;;;;4.00;3.60;;;22.40;56.90;;;;;;5038295;28;20206;-80
2023/09/06 00:25:15;;;;;;;3.70;3.40;;;22.40;56.70;;;;;;5053105;28;20219;-80
2023/09/06 00:27:43;;;;;;;4.28;3.72;;;22.40;56.70;;;;;;5054569;28;20203;-80
2023/09/06 00:30:11;;;;;;;3.50;3.20;;;22.40;56.80;;;;;;5055473;28;20265;-80
2023/09/06 00:32:38;;;;;;;4.40;4.00;;;22.40;56.80;;;;;;5055423;28;20340;-80
2023/09/06 00:35:06;;;;;;;4.50;3.50;;;22.40;56.80;;;;;;5053755;28;20220;-80
2023/09/06 00:37:36;;;;;;;3.85;3.55;;;22.40;56.90;;;;;;5052718;28;20674;-80
2023/09/06 00:40:11;;;;;;;4.50;3.80;;;22.40;56.90;;;;;;5053455;28;20245;-80
2023/09/06 00:42:38;;;;;;;4.18;3.75;;;22.30;56.80;;;;;;5056570;28;20191;-80
2023/09/06 00:45:08;;;;;;;4.15;3.35;;;22.40;56.70;;;;;;5056752;28;20277;-80
2023/09/06 00:47:35;;;;;;;4.53;3.90;;;22.30;56.80;;;;;;5056956;28;20238;-80
2023/09/06 00:50:02;;;;;;;3.63;3.33;;;22.30;56.70;;;;;;5058008;28;20603;-80
2023/09/06 00:52:29;;;;;;;4.07;3.70;;;22.30;56.40;;;;;;5056678;28;20654;-80
2023/09/06 00:54:57;;;;;;;3.70;3.40;;;22.30;56.70;;;;;;5056466;28;20223;-80
2023/09/06 00:57:24;;;;;;;3.92;3.55;;;22.30;56.80;;;;;;5040296;28;20227;-80
2023/09/06 00:59:51;;;;;;;3.97;3.63;;;22.20;56.70;;;;;;5056843;28;20198;-80
2023/09/06 01:02:20;;;;;;;4.15;3.63;;;22.20;56.70;;;;;;5056798;28;20260;-79
2023/09/06 01:04:46;;;;;;;6.10;4.05;;;22.20;56.60;;;;;;5056634;28;20223;-80
2023/09/06 01:07:13;;;;;;;4.13;3.78;;;22.30;56.90;;;;;;5057393;28;20213;-80
2023/09/06 01:09:40;;;;;;;3.90;3.60;;;22.20;56.70;;;;;;5039802;28;20708;-80
2023/09/06 01:12:10;;;;;;;3.97;3.55;;;22.20;56.40;;;;;;5056293;28;20210;-80
2023/09/06 01:14:40;;;;;;;4.28;3.38;;;22.20;56.70;;;;;;5057280;28;20298;-80
2023/09/06 01:17:07;;;;;;;4.35;3.65;;;22.20;56.70;;;;;;5055464;28;20205;-80
2023/09/06 01:19:35;;;;;;;4.60;3.80;;;22.20;56.70;;;;;;5055642;28;20195;-80
2023/09/06 01:22:05;;;;;;;3.88;3.58;;;22.10;56.50;;;;;;5055422;28;20203;-80
2023/09/06 01:24:34;;;;;;;3.90;3.50;;;22.20;56.60;;;;;;5055443;28;20246;-80
2023/09/06 01:27:01;;;;;;;4.18;3.78;;;22.10;56.30;;;;;;5055655;28;20210;-80
2023/09/06 01:29:29;;;;;;;3.95;3.55;;;22.20;56.30;;;;;;5055291;28;20219;-80
2023/09/06 01:31:56;;;;;;;3.92;3.63;;;22.10;56.20;;;;;;5039012;28;20206;-80
2023/09/06 01:34:23;;;;;;;4.25;3.70;;;22.10;56.20;;;;;;5038885;28;20635;-80
2023/09/06 01:36:50;;;;;;;4.75;3.60;;;22.10;56.40;;;;;;5055331;28;20712;-80
2023/09/06 01:39:17;;;;;;;4.07;3.67;;;22.10;56.90;;;;;;5055500;28;20203;-80
2023/09/06 01:41:46;;;;;;;3.83;3.50;;;22.10;56.20;;;;;;5055014;28;20602;-80
2023/09/06 01:44:14;;;;;;;3.95;3.65;;;22.10;56.40;;;;;;5038436;28;20224;-80
2023/09/06 01:46:41;;;;;;;4.63;3.75;;;22.10;56.30;;;;;;5054980;28;20184;-80
2023/09/06 01:49:09;;;;;;;3.67;3.38;;;22.00;56.30;;;;;;5022357;28;20315;-80
2023/09/06 01:51:36;;;;;;;3.85;3.45;;;22.10;56.20;;;;;;5054469;28;20234;-80
2023/09/06 01:54:05;;;;;;;3.50;3.20;;;22.00;56.20;;;;;;5055364;28;20230;-80
2023/09/06 01:56:31;;;;;;;4.07;3.67;;;22.00;56.20;;;;;;5054286;28;20196;-80
2023/09/06 01:59:00;;;;;;;5.60;4.43;;;22.00;56.20;;;;;;5054818;28;20286;-80
2023/09/06 02:01:27;;;;;;;4.05;3.75;;;22.00;56.20;;;;;;5038713;28;20199;-80
2023/09/06 02:03:55;;;;;;;3.92;3.63;;;22.00;56.20;;;;;;5040900;28;20226;-80
2023/09/06 02:06:22;;;;;;;3.58;3.28;;;22.00;56.20;;;;;;5039244;28;20199;-80
2023/09/06 02:08:50;;;;;;;6.32;4.05;;;22.00;56.20;;;;;;5055180;28;20218;-80
2023/09/06 02:11:18;;;;;;;4.57;3.85;;;21.90;56.10;;;;;;5054645;28;20202;-80
2023/09/06 02:13:45;;;;;;;4.80;3.95;;;22.00;56.20;;;;;;5054457;28;20215;-80
2023/09/06 02:16:14;;;;;;;3.72;3.42;;;21.90;56.10;;;;;;5054916;28;20653;-80
2023/09/06 02:18:40;;;;;;;3.97;3.67;;;22.00;56.20;;;;;;5054488;28;20207;-80
2023/09/06 02:21:08;;;;;;;4.28;3.97;;;21.90;56.10;;;;;;5055087;28;20537;-80
2023/09/06 02:23:36;;;;;;;4.70;3.72;;;21.90;56.10;;;;;;5054650;28;20245;-80
2023/09/06 02:26:04;;;;;;;3.88;3.47;;;21.90;56.10;;;;;;5038386;28;20204;-80
2023/09/06 02:28:31;;;;;;;5.68;3.70;;;21.90;56.10;;;;;;5054764;28;20203;-80
2023/09/06 02:30:58;;;;;;;3.95;3.65;;;21.90;56.10;;;;;;5038560;28;20199;-79
2023/09/06 02:33:28;;;;;;;3.90;3.50;;;21.90;56.10;;;;;;5054045;28;20210;-79
2023/09/06 02:35:55;;;;;;;4.28;3.88;;;21.80;56.00;;;;;;5054708;28;20244;-79
2023/09/06 02:38:22;;;;;;;4.43;4.03;;;21.90;56.10;;;;;;5054477;28;20195;-79
2023/09/06 02:40:50;;;;;;;4.30;3.92;;;21.90;56.10;;;;;;5054468;28;20720;-79
2023/09/06 02:43:17;;;;;;;5.40;3.80;;;21.80;56.00;;;;;;5054139;28;20278;-79
2023/09/06 02:45:49;;;;;;;4.10;3.70;;;21.80;56.00;;;;;;5054611;28;20195;-79
2023/09/06 02:48:18;;;;;;;3.83;3.53;;;21.80;56.00;;;;;;5054145;28;20199;-79
2023/09/06 02:50:47;;;;;;;4.75;3.42;;;21.80;56.00;;;;;;5054059;28;20215;-79
2023/09/06 02:53:19;;;;;;;4.30;3.88;;;21.80;56.00;;;;;;5054597;28;20225;-79
2023/09/06 02:55:47;;;;;;;4.00;3.70;;;21.80;56.00;;;;;;5054128;28;20255;-79
2023/09/06 02:58:16;;;;;;;4.28;3.97;;;21.80;56.00;;;;;;5053834;28;20680;-79
2023/09/06 03:00:47;;;;;;;4.10;3.70;;;21.80;56.00;;;;;;5054167;28;20660;-80
2023/09/06 03:03:16;;;;;;;3.80;3.50;;;21.70;55.90;;;;;;5053245;28;20653;-81
2023/09/06 03:05:43;;;;;;;3.92;3.63;;;21.70;56.00;;;;;;5053415;28;20191;-80
2023/09/06 03:08:16;;;;;;;4.10;3.72;;;21.70;55.90;;;;;;5053359;28;20549;-80
2023/09/06 03:10:45;;;;;;;4.85;4.00;;;21.70;55.90;;;;;;5053518;28;20215;-80
2023/09/06 03:13:15;;;;;;;4.28;3.70;;;21.70;55.60;;;;;;5053785;28;20204;-80
2023/09/06 03:15:44;;;;;;;6.03;3.83;;;21.70;55.20;;;;;;5054705;28;20199;-80
2023/09/06 03:18:13;;;;;;;4.07;3.67;;;21.70;55.30;;;;;;5036844;28;20199;-80
2023/09/06 03:20:43;;;;;;;4.10;3.70;;;21.70;55.40;;;;;;5053257;28;20203;-80
2023/09/06 03:23:21;;;;;;;4.10;3.70;;;21.70;55.20;;;;;;5053622;28;20269;-80
2023/09/06 03:25:54;;;;;;;4.68;4.25;;;21.70;55.40;;;;;;5053476;28;20282;-80
2023/09/06 03:28:25;;;;;;;3.90;3.50;;;21.80;55.40;;;;;;5053403;28;20723;-80
2023/09/06 03:30:58;;;;;;;4.18;3.65;;;21.80;55.20;;;;;;5054309;28;20207;-80
2023/09/06 03:33:26;;;;;;;3.85;3.55;;;21.80;55.10;;;;;;5053985;28;20260;-80
2023/09/06 03:35:53;;;;;;;4.07;3.67;;;21.80;54.90;;;;;;5037648;28;20191;-80
2023/09/06 03:38:25;;;;;;;4.15;3.42;;;21.80;54.90;;;;;;5053639;28;20199;-81
2023/09/06 03:40:52;;;;;;;4.30;3.90;;;21.90;54.90;;;;;;5053984;28;20195;-81
2023/09/06 03:43:29;;;;;;;3.97;3.67;;;21.90;54.90;;;;;;5053716;28;20565;-81
2023/09/06 03:45:58;;;;;;;3.90;3.60;;;21.90;54.80;;;;;;5053286;28;20205;-81
2023/09/06 03:48:27;;;;;;;4.30;3.90;;;21.90;54.70;;;;;;5053492;28;20203;-81
2023/09/06 03:50:56;;;;;;;4.38;3.63;;;21.90;54.60;;;;;;5053314;28;20223;-80
2023/09/06 03:53:25;;;;;;;4.30;3.90;;;21.90;54.60;;;;;;5036799;28;20203;-80
2023/09/06 03:55:56;;;;;;;4.00;3.60;;;21.90;54.50;;;;;;5053082;28;20278;-80
2023/09/06 03:58:27;;;;;;;4.20;3.80;;;21.90;54.40;;;;;;5053287;28;20278;-80
2023/09/06 04:00:56;;;;;;;4.00;3.70;;;21.90;54.50;;;;;;5052815;28;20191;-80
2023/09/06 04:03:30;;;;;;;4.15;3.75;;;21.90;54.50;;;;;;5037943;28;20583;-80
2023/09/06 04:05:59;;;;;;;3.85;3.53;;;21.90;54.40;;;;;;5052767;28;20207;-80
2023/09/06 04:08:28;;;;;;;3.88;3.47;;;21.90;54.30;;;;;;5052728;28;20198;-80
2023/09/06 04:10:56;;;;;;;3.72;3.42;;;21.90;54.30;;;;;;5052807;28;20314;-80
2023/09/06 04:13:23;;;;;;;4.72;3.63;;;21.80;54.10;;;;;;5053021;28;20288;-80
2023/09/06 04:15:50;;;;;;;4.18;3.53;;;21.80;54.20;;;;;;5055763;28;20195;-80
2023/09/06 04:18:18;;;;;;;4.07;3.70;;;21.90;54.30;;;;;;5056929;28;20223;-80
2023/09/06 04:20:46;;;;;;;3.83;3.53;;;21.80;54.00;;;;;;5056425;28;20510;-80
2023/09/06 04:23:16;;;;;;;4.80;3.58;;;21.80;54.10;;;;;;5056876;28;20658;-80
2023/09/06 04:25:50;;;;;;;3.72;3.42;;;21.70;53.80;;;;;;5056336;28;20199;-80
2023/09/06 04:28:21;;;;;;;4.32;3.67;;;21.80;54.00;;;;;;5056590;28;20691;-80
2023/09/06 04:30:51;;;;;;;3.80;3.50;;;21.80;54.10;;;;;;5040005;28;20215;-79
2023/09/06 04:33:22;;;;;;;5.00;3.75;;;21.70;53.90;;;;;;5040874;28;20187;-79
2023/09/06 04:35:58;;;;;;;4.15;3.85;;;21.80;54.10;;;;;;5057760;28;20184;-79
2023/09/06 04:38:26;;;;;;;4.25;3.90;;;21.70;54.00;;;;;;5057659;28;20199;-80
2023/09/06 04:41:00;;;;;;;4.30;3.90;;;21.70;54.10;;;;;;5043024;28;20179;-80
2023/09/06 04:43:30;;;;;;;3.85;3.45;;;21.70;54.10;;;;;;5069308;28;20191;-80
2023/09/06 04:45:59;;;;;;;4.28;3.88;;;21.70;54.10;;;;;;5058960;28;20204;-80
2023/09/06 04:48:29;;;;;;;4.15;3.65;;;21.70;54.20;;;;;;5056959;28;20187;-80
2023/09/06 04:51:00;;;;;;;4.13;3.72;;;21.60;54.20;;;;;;5040481;28;20207;-80
2023/09/06 04:53:28;;;;;;;3.65;3.30;;;21.70;54.40;;;;;;5056287;28;20290;-80
2023/09/06 04:55:56;;;;;;;4.20;3.80;;;21.70;54.30;;;;;;5058322;28;20204;-80
2023/09/06 04:58:29;;;;;;;3.85;3.55;;;21.70;54.60;;;;;;5040924;28;20199;-81
2023/09/06 05:00:57;;;;;;;3.83;3.53;;;21.70;54.60;;;;;;5056752;28;20653;-80
2023/09/06 05:03:25;;;;;;;4.07;3.75;;;21.60;54.60;;;;;;5056779;28;20253;-80
2023/09/06 05:05:55;;;;;;;4.35;3.95;;;21.60;54.70;;;;;;5056815;28;20205;-80
2023/09/06 05:08:23;;;;;;;4.05;3.65;;;21.60;54.80;;;;;;5056517;28;20196;-80
2023/09/06 05:10:51;;;;;;;4.35;3.95;;;21.60;54.80;;;;;;5056746;28;20298;-80
2023/09/06 05:13:20;;;;;;;4.10;3.70;;;21.60;54.30;;;;;;5058466;28;20195;-80
2023/09/06 05:15:49;;;;;;;4.68;3.70;;;21.60;54.20;;;;;;5057713;28;20218;-80
2023/09/06 05:18:16;;;;;;;4.40;4.00;;;21.50;54.20;;;;;;5057011;28;20646;-80
2023/09/06 05:20:44;;;;;;;4.13;3.75;;;21.50;54.30;;;;;;5057099;28;20286;-81
2023/09/06 05:23:15;;;;;;;4.28;3.88;;;21.50;54.70;;;;;;5056519;28;20195;-81
2023/09/06 05:25:46;;;;;;;4.93;4.10;;;21.50;54.70;;;;;;5056203;28;20198;-81
2023/09/06 05:28:26;;;;;;;4.40;4.00;;;21.50;55.20;;;;;;5055850;28;20195;-80
2023/09/06 05:31:02;;;;;;;5.05;3.70;;;21.50;55.30;;;;;;5055853;28;20215;-81
2023/09/06 05:33:31;;;;;;;4.05;3.65;;;21.50;55.40;;;;;;5056198;28;20282;-81
2023/09/06 05:36:00;;;;;;;4.55;3.83;;;21.50;55.40;;;;;;5055711;28;20684;-81
2023/09/06 05:38:27;;;;;;;5.18;4.13;;;21.50;55.50;;;;;;5055477;28;20195;-81
2023/09/06 05:40:55;;;;;;;4.35;3.95;;;21.50;54.80;;;;;;5055388;28;20286;-81
2023/09/06 05:43:29;;;;;;;6.00;3.72;;;21.50;53.90;;;;;;5055399;28;20194;-81
2023/09/06 05:45:57;;;;;;;4.75;4.22;;;21.50;53.70;;;;;;5055715;28;20286;-81
2023/09/06 05:48:26;;;;;;;4.10;3.70;;;21.60;53.50;;;;;;5055884;28;20257;-81
2023/09/06 05:50:54;;;;;;;5.68;3.92;;;21.50;53.30;;;;;;5055617;28;20215;-81
2023/09/06 05:53:23;;;;;;;4.03;3.63;;;21.60;53.30;;;;;;5055675;28;20222;-81
2023/09/06 05:55:51;;;;;;;4.05;3.45;;;21.60;53.20;;;;;;5055529;28;20219;-81
2023/09/06 05:58:19;;;;;;;4.03;3.72;;;21.70;53.00;;;;;;5055136;28;20199;-82
2023/09/06 06:00:48;;;;;;;3.97;3.50;;;21.70;53.30;;;;;;5054724;28;20200;-81
2023/09/06 06:03:15;;;;;;;5.30;3.63;;;21.70;53.50;;;;;;5055017;28;20653;-81
2023/09/06 06:05:43;;;;;;;4.00;3.60;;;21.80;53.70;;;;;;5055171;28;20219;-81
2023/09/06 06:08:11;;;;;;;4.20;3.80;;;21.80;53.40;;;;;;5055009;28;20226;-81
2023/09/06 06:10:39;;;;;;;4.07;3.78;;;21.90;53.80;;;;;;5054569;28;20215;-81
2023/09/06 06:13:07;;;;;;;3.85;3.45;;;22.00;53.60;;;;;;5038153;28;20227;-81
2023/09/06 06:15:34;;;;;;;3.80;3.50;;;22.10;52.80;;;;;;5054611;28;20678;-81
2023/09/06 06:18:02;;;;;;;3.92;3.53;;;22.10;52.60;;;;;;5054739;28;20211;-81
2023/09/06 06:20:29;;;;;;;4.13;3.70;;;22.20;52.50;;;;;;5054314;28;20198;-80
2023/09/06 06:22:57;;;;;;;4.10;3.70;;;22.20;52.80;;;;;;5054717;28;20214;-82
2023/09/06 06:25:24;;;;;;;4.18;3.78;;;22.20;52.80;;;;;;5055454;28;20260;-81
2023/09/06 06:27:51;;;;;;;3.95;3.50;;;22.40;52.90;;;;;;5055816;28;20202;-81
2023/09/06 06:30:19;;;;;;;4.15;3.30;;;22.50;52.60;;;;;;5055121;28;20307;-81
2023/09/06 06:32:46;;;;;;;5.30;3.70;;;22.70;52.40;;;;;;5054769;28;20210;-81
2023/09/06 06:35:14;;;;;;;4.05;3.65;;;22.90;51.90;;;;;;5054272;28;20215;-81
2023/09/06 06:37:41;;;;;;;4.18;3.78;;;23.20;51.60;;;;;;5053723;28;20196;-81
2023/09/06 06:40:11;;;;;;;4.25;3.85;;;23.40;51.20;;;;;;5037681;28;20237;-81
2023/09/06 06:42:39;;;;;;;4.07;3.47;;;23.50;50.80;;;;;;5054347;28;20249;-81
2023/09/06 06:45:10;;;;;;;4.10;3.53;;;23.70;50.40;;;;;;5055019;28;20211;-81
2023/09/06 06:47:37;;;;;;;3.85;3.53;;;23.90;50.10;;;;;;5054422;28;20203;-81
2023/09/06 06:50:06;;;;;;;3.65;3.35;;;24.10;49.90;;;;;;5055018;28;20183;-81
2023/09/06 06:52:34;;;;;;;4.65;3.83;;;24.20;49.60;;;;;;5054033;28;20219;-81
2023/09/06 06:55:03;;;;;;;3.88;3.47;;;24.30;49.20;;;;;;5053782;28;20219;-81
2023/09/06 06:57:33;;;;;;;3.88;3.47;;;24.50;49.30;;;;;;5054114;28;20298;-81
2023/09/06 07:00:02;;;;;;;3.60;3.30;;;24.60;49.00;;;;;;5054019;28;20286;-81
2023/09/06 07:02:29;;;;;;;4.20;3.80;;;24.70;49.00;;;;;;5037462;28;20726;-81
2023/09/06 07:04:57;;;;;;;3.83;3.50;;;24.80;48.80;;;;;;5038964;28;20227;-81
2023/09/06 07:07:24;;;;;;;5.40;3.60;;;24.90;48.60;;;;;;5056670;28;20219;-81
2023/09/06 07:09:52;;;;;;;5.65;3.97;;;25.00;48.50;;;;;;5053557;28;20195;-82
2023/09/06 07:12:19;;;;;;;4.07;3.65;;;25.10;48.30;;;;;;5053316;28;20227;-82
2023/09/06 07:14:47;;;;;;;4.22;3.60;;;25.10;48.10;;;;;;5053189;28;20223;-82
2023/09/06 07:17:14;;;;;;;3.80;3.50;;;25.20;48.10;;;;;;5055099;28;20215;-81
2023/09/06 07:19:42;;;;;;;4.43;3.88;;;25.30;47.90;;;;;;5053823;28;20198;-81
2023/09/06 07:22:09;;;;;;;4.28;3.88;;;25.30;47.80;;;;;;5054092;28;20549;-81
2023/09/06 07:24:35;;;;;;;3.90;3.60;;;25.40;47.70;;;;;;5052928;28;20219;-81
2023/09/06 07:27:02;;;;;;;4.03;3.50;;;25.50;47.70;;;;;;5053083;28;20253;-81
2023/09/06 07:29:30;;;;;;;3.83;3.53;;;25.60;47.50;;;;;;5053615;28;20219;-82
2023/09/06 07:31:58;;;;;;;3.60;3.30;;;25.60;47.40;;;;;;5053092;28;20219;-82
2023/09/06 07:34:26;;;;;;;3.97;3.58;;;25.70;47.20;;;;;;5036268;28;20272;-82
2023/09/06 07:36:53;;;;;;;4.00;3.60;;;25.70;47.00;;;;;;5053067;28;20213;-81
2023/09/06 07:39:21;;;;;;;4.30;3.90;;;25.80;46.90;;;;;;5052683;28;20264;-81
2023/09/06 07:41:50;;;;;;;3.60;3.30;;;25.90;46.80;;;;;;5052994;28;20191;-81
2023/09/06 07:44:18;;;;;;;3.60;3.30;;;25.90;46.60;;;;;;5052412;28;20218;-81
2023/09/06 07:46:48;;;;;;;3.60;3.30;;;26.00;46.60;;;;;;5036485;28;20288;-81
2023/09/06 07:49:18;;;;;;;3.88;3.30;;;26.00;46.40;;;;;;5052788;28;20306;-81
2023/09/06 07:51:45;;;;;;;4.00;3.60;;;26.10;46.40;;;;;;5056704;28;20301;-81
2023/09/06 07:54:12;;;;;;;3.72;3.42;;;26.20;46.30;;;;;;5056645;28;20215;-81
2023/09/06 07:56:39;;;;;;;4.18;3.78;;;26.20;46.20;;;;;;5056630;28;20209;-81
2023/09/06 07:59:09;;;;;;;3.67;3.38;;;26.30;46.10;;;;;;5056608;28;20719;-81
2023/09/06 08:01:36;;;;;;;4.32;3.25;;;26.30;46.00;;;;;;5056683;28;20244;-81
2023/09/06 08:04:04;;;;;;;4.00;3.60;;;26.40;46.10;;;;;;5057083;28;20217;-81
2023/09/06 08:06:32;;;;;;;3.58;3.28;;;26.40;46.00;;;;;;5056396;28;20293;-81
2023/09/06 08:09:00;;;;;;;3.80;3.50;;;26.50;45.90;;;;;;5056683;28;20195;-81
2023/09/06 08:11:27;;;;;;;3.80;3.50;;;26.50;46.00;;;;;;5057844;28;20631;-81
2023/09/06 08:13:54;;;;;;;3.53;3.22;;;26.60;45.70;;;;;;5057169;28;20272;-81
2023/09/06 08:16:21;;;;;;;3.97;3.55;;;26.60;45.80;;;;;;5057080;28;20248;-81
2023/09/06 08:18:49;;;;;;;3.75;3.30;;;26.60;45.60;;;;;;5056648;28;20203;-81
2023/09/06 08:21:16;;;;;;;3.90;3.60;;;26.70;45.70;;;;;;5056535;28;20197;-81
2023/09/06 08:23:45;;;;;;;4.00;3.60;;;26.70;45.60;;;;;;5056197;28;20214;-81
2023/09/06 08:26:13;;;;;;;3.70;3.30;;;26.80;45.60;;;;;;5056825;28;20198;-82
2023/09/06 08:28:40;;;;;;;3.85;3.55;;;26.80;45.30;;;;;;5056560;28;20194;-82
2023/09/06 08:31:07;;;;;;;3.72;3.35;;;26.80;45.30;;;;;;5056650;28;20207;-82
2023/09/06 08:33:34;;;;;;;3.80;3.50;;;26.90;45.30;;;;;;5057199;28;20277;-82
2023/09/06 08:36:01;;;;;;;3.75;3.45;;;26.90;45.30;;;;;;5057054;28;20707;-82
2023/09/06 08:38:28;;;;;;;4.88;3.15;;;27.00;45.30;;;;;;5056630;28;20289;-82
2023/09/06 08:40:57;;;;;;;3.47;3.17;;;27.00;45.20;;;;;;5056455;28;20194;-82
2023/09/06 08:43:24;;;;;;;3.58;3.28;;;27.00;45.20;;;;;;5056532;28;20628;-82
2023/09/06 08:45:51;;;;;;;3.45;3.20;;;27.10;45.20;;;;;;5056510;28;20219;-81
2023/09/06 08:48:19;;;;;;;3.67;3.38;;;27.10;45.10;;;;;;5057234;28;20258;-81
2023/09/06 08:50:46;;;;;;;3.25;2.95;;;27.20;45.10;;;;;;5056200;28;20245;-82
2023/09/06 08:53:13;;;;;;;3.65;3.35;;;27.20;45.10;;;;;;5056317;28;20252;-82
2023/09/06 08:55:41;;;;;;;3.30;3.00;;;27.20;45.00;;;;;;5056045;28;20215;-82
2023/09/06 08:58:10;;;;;;;3.42;3.13;;;27.20;45.00;;;;;;5058205;28;20218;-82
2023/09/06 09:00:38;;;;;;;3.40;3.10;;;27.20;44.90;;;;;;5058587;28;20210;-82
2023/09/06 09:03:05;;;;;;;3.50;3.20;;;27.30;44.80;;;;;;5039925;28;20673;-82
2023/09/06 09:05:32;;;;;;;3.53;3.22;;;27.30;44.80;;;;;;5056366;28;20207;-82
2023/09/06 09:08:01;;;;;;;3.40;3.05;;;27.30;44.70;;;;;;5056076;28;20328;-82
2023/09/06 09:10:31;;;;;;;3.20;3.00;;;27.40;44.80;;;;;;5055751;28;20287;-82
2023/09/06 09:12:59;;;;;;;3.42;3.13;;;27.40;44.70;;;;;;5056001;28;20195;-82
2023/09/06 09:15:30;;;;;;;3.47;3.17;;;27.40;44.70;;;;;;5055501;28;20288;-82
2023/09/06 09:17:57;;;;;;;3.50;3.20;;;27.40;44.60;;;;;;5055409;28;20198;-82
2023/09/06 09:20:24;;;;;;;3.33;3.03;;;27.40;44.60;;;;;;5055402;28;20221;-82
2023/09/06 09:22:51;;;;;;;3.55;3.03;;;27.50;44.60;;;;;;5055232;28;20195;-82
2023/09/06 09:25:23;;;;;;;3.42;3.13;;;27.50;44.60;;;;;;5055511;28;20219;-82
2023/09/06 09:27:51;;;;;;;3.70;3.40;;;27.50;44.50;;;;;;5055411;28;20205;-82
2023/09/06 09:30:18;;;;;;;3.47;3.17;;;27.50;44.50;;;;;;5055316;28;20238;-82
2023/09/06 09:32:48;;;;;;;3.30;3.00;;;27.50;44.50;;;;;;5055393;28;20211;-82
2023/09/06 09:35:15;;;;;;;3.28;3.05;;;27.50;44.50;;;;;;5055615;28;20219;-82
2023/09/06 09:37:43;;;;;;;3.60;3.30;;;27.50;44.50;;;;;;5055225;28;20573;-82
2023/09/06 09:40:18;;;;;;;4.40;3.20;;;27.50;44.50;;;;;;5055325;28;20610;-82
2023/09/06 09:42:54;;;;;;;3.55;3.25;;;27.50;44.50;;;;;;5054956;28;20202;-82
2023/09/06 09:45:23;;;;;;;3.22;2.92;;;27.60;44.70;;;;;;5054982;28;20210;-82
2023/09/06 09:47:51;;;;;;;3.60;3.30;;;27.60;44.70;;;;;;5055145;28;20198;-82
2023/09/06 09:50:19;;;;;;;3.13;2.92;;;27.60;44.80;;;;;;5055110;28;20202;-82
2023/09/06 09:52:46;;;;;;;3.30;3.00;;;27.50;44.80;;;;;;5057417;28;20695;-82
2023/09/06 09:55:15;;;;;;;2.78;2.58;;;27.60;44.90;;;;;;5040543;28;20814;-82
2023/09/06 09:57:43;;;;;;;3.03;2.83;;;27.60;44.80;;;;;;5057293;28;20195;-82
2023/09/06 10:00:13;;;;;;;3.10;2.80;;;27.60;44.80;;;;;;5056689;28;20199;-82
2023/09/06 10:02:41;;;;;;;3.42;3.13;;;27.60;44.90;;;;;;5058021;28;20197;-82
2023/09/06 10:05:12;;;;;;;3.42;3.13;;;27.50;44.90;;;;;;5056516;28;20621;-81
2023/09/06 10:07:41;;;;;;;3.50;3.20;;;27.50;45.00;;;;;;5040635;28;20194;-81
2023/09/06 10:10:10;;;;;;;3.10;2.80;;;27.50;45.00;;;;;;5056290;28;20202;-82
2023/09/06 10:12:39;;;;;;;3.30;3.00;;;27.50;45.00;;;;;;5037653;28;20229;-82
2023/09/06 10:15:08;;;;;;;3.30;3.00;;;27.50;45.00;;;;;;5055708;28;20250;-82
2023/09/06 10:17:35;;;;;;;3.38;3.05;;;27.40;45.00;;;;;;5055685;28;20186;-82
2023/09/06 10:20:02;;;;;;;3.35;3.05;;;27.50;45.00;;;;;;5056356;28;20217;-82
2023/09/06 10:22:31;;;;;;;3.00;2.80;;;27.50;45.20;;;;;;5055693;28;20198;-82
2023/09/06 10:25:05;;;;;;;3.58;3.28;;;27.40;45.20;;;;;;5055039;28;20222;-82
2023/09/06 10:27:33;;;;;;;3.28;2.92;;;27.40;45.30;;;;;;5055091;28;20198;-82
2023/09/06 10:30:00;;;;;;;3.10;2.90;;;27.40;45.40;;;;;;5055166;28;20664;-82
2023/09/06 10:32:39;;;;;;;2.95;2.75;;;27.40;45.50;;;;;;5055417;28;20225;-82
2023/09/06 10:35:24;;;;;;;3.30;3.00;;;27.30;45.60;;;;;;5055269;28;20218;-82
2023/09/06 10:38:10;;;;;;;3.17;2.88;;;27.30;45.70;;;;;;5058843;28;20557;-81
2023/09/06 10:41:06;;;;;;;3.13;2.90;;;27.20;45.70;;;;;;5055551;28;20203;-81
2023/09/06 10:43:44;;;;;;;2.92;2.72;;;27.20;45.90;;;;;;5056827;28;20199;-82
2023/09/06 10:46:27;;;;;;;3.05;2.85;;;27.20;45.90;;;;;;5056873;28;20175;-82
2023/09/06 10:49:20;;;;;;;3.20;2.90;;;27.20;46.10;;;;;;5055396;28;20205;-82
2023/09/06 10:51:57;;;;;;;3.22;2.92;;;27.20;46.20;;;;;;5038072;28;20260;-82
2023/09/06 10:54:26;;;;;;;3.13;2.83;;;27.10;46.30;;;;;;5055926;28;20221;-82
2023/09/06 10:56:58;;;;;;;3.25;3.00;;;27.10;46.40;;;;;;5054805;28;20187;-82
2023/09/06 10:59:25;;;;;;;3.40;3.10;;;27.10;46.50;;;;;;5038499;28;20198;-82
2023/09/06 11:02:09;;;;;;;3.05;2.85;;;27.00;46.60;;;;;;5054886;28;20229;-82
2023/09/06 11:04:37;;;;;;;2.90;2.60;;;26.90;46.80;;;;;;5053959;28;20324;-82
2023/09/06 11:07:09;;;;;;;2.97;2.78;;;26.90;46.90;;;;;;5053780;28;20226;-82
2023/09/06 11:09:43;;;;;;;3.38;3.08;;;26.90;47.00;;;;;;5054144;28;20269;-82
2023/09/06 11:12:12;;;;;;;3.20;3.00;;;26.90;47.10;;;;;;5037333;28;20248;-82
2023/09/06 11:14:39;;;;;;;3.10;2.80;;;26.90;47.20;;;;;;5037698;28;20244;-82
2023/09/06 11:17:06;;;;;;;3.00;2.80;;;26.90;47.20;;;;;;5054540;28;20194;-82
2023/09/06 11:19:35;;;;;;;3.17;2.97;;;26.80;47.20;;;;;;5055250;28;20206;-82
2023/09/06 11:22:06;;;;;;;3.25;3.00;;;26.80;47.30;;;;;;5022693;28;20195;-82
2023/09/06 11:24:34;;;;;;;3.17;2.95;;;26.90;47.40;;;;;;5036992;28;20223;-82
2023/09/06 11:27:15;;;;;;;2.95;2.75;;;26.80;47.50;;;;;;5053498;28;20241;-82
2023/09/06 11:29:43;;;;;;;3.30;3.00;;;26.80;47.50;;;;;;5053232;28;20190;-82
2023/09/06 11:32:11;;;;;;;3.22;2.92;;;26.80;47.60;;;;;;5053431;28;20254;-82
2023/09/06 11:34:42;;;;;;;3.15;2.95;;;26.80;47.60;;;;;;5053596;28;20302;-82
2023/09/06 11:37:12;;;;;;;2.80;2.60;;;26.80;47.60;;;;;;5053428;28;20613;-82
2023/09/06 11:39:40;;;;;;;3.33;2.72;;;26.80;47.70;;;;;;5053395;28;20246;-82
2023/09/06 11:42:11;;;;;;;2.88;2.67;;;26.90;47.70;;;;;;5053266;28;20210;-82
2023/09/06 11:44:43;;;;;;;2.83;2.63;;;26.80;47.70;;;;;;5053319;28;20754;-82
2023/09/06 11:47:10;;;;;;;2.70;2.50;;;26.90;47.80;;;;;;5053707;28;20199;-82
2023/09/06 11:49:39;;;;;;;2.75;2.55;;;26.90;47.80;;;;;;5037034;28;20198;-82
2023/09/06 11:52:07;;;;;;;2.97;2.63;;;26.90;47.80;;;;;;5037122;28;20234;-82
2023/09/06 11:54:38;;;;;;;3.67;3.10;;;26.90;47.90;;;;;;5053617;28;20269;-82
2023/09/06 11:57:08;;;;;;;2.75;2.55;;;26.90;47.90;;;;;;5054185;28;20187;-82
2023/09/06 11:59:37;;;;;;;3.38;3.08;;;26.90;47.90;;;;;;5053702;28;20718;-81
2023/09/06 12:02:06;;;;;;;3.00;2.70;;;26.90;47.90;;;;;;5053736;28;20213;-81
2023/09/06 12:04:32;;;;;;;2.92;2.70;;;26.90;48.10;;;;;;5054140;28;20221;-81
2023/09/06 12:07:02;;;;;;;2.75;2.55;;;26.90;48.70;;;;;;5068388;28;20240;-81
2023/09/06 12:09:30;;;;;;;3.00;2.70;;;26.90;48.10;;;;;;5054480;28;20206;-81
2023/09/06 12:11:59;;;;;;;3.20;2.88;;;26.90;48.20;;;;;;5050156;28;20348;-82
2023/09/06 12:14:27;;;;;;;2.80;2.60;;;26.80;48.20;;;;;;5053533;28;20259;-82
2023/09/06 12:16:57;;;;;;;2.85;2.65;;;26.80;48.50;;;;;;5053248;28;20648;-82
2023/09/06 12:19:24;;;;;;;3.47;2.53;;;26.80;48.70;;;;;;5051769;28;20525;-83
2023/09/06 12:21:51;;;;;;;4.93;2.85;;;26.80;48.80;;;;;;5049971;28;20210;-83
2023/09/06 12:24:18;;;;;;;4.57;2.83;;;26.70;49.00;;;;;;5051149;28;20217;-83
2023/09/06 12:26:47;;;;;;;3.03;2.75;;;26.70;49.30;;;;;;5029009;28;20218;-83
2023/09/06 12:29:14;;;;;;;3.70;3.25;;;26.70;49.20;;;;;;5052719;28;20290;-83
2023/09/06 12:31:41;;;;;;;4.07;2.97;;;26.70;49.30;;;;;;5053670;28;20198;-83
2023/09/06 12:34:10;;;;;;;4.85;3.50;;;26.70;49.50;;;;;;5053660;28;20233;-83
2023/09/06 12:36:37;;;;;;;4.20;3.35;;;26.60;49.20;;;;;;5054362;28;20199;-83
2023/09/06 12:39:06;;;;;;;3.58;3.20;;;26.70;49.50;;;;;;5056678;28;20203;-83
2023/09/06 12:41:33;;;;;;;4.20;3.28;;;26.60;49.50;;;;;;5056325;28;20195;-84
2023/09/06 12:44:00;;;;;;;4.47;3.78;;;26.70;49.80;;;;;;5057768;28;20274;-83
2023/09/06 12:46:27;;;;;;;4.13;3.25;;;26.60;49.70;;;;;;5057356;28;20203;-83
2023/09/06 12:48:54;;;;;;;3.90;3.47;;;26.60;49.70;;;;;;5056389;28;20210;-83
2023/09/06 12:51:22;;;;;;;4.18;3.88;;;26.60;49.70;;;;;;5056359;28;20203;-83
2023/09/06 12:53:49;;;;;;;3.53;3.22;;;26.60;49.60;;;;;;5056167;28;20219;-83
2023/09/06 12:56:16;;;;;;;4.03;3.50;;;26.60;49.70;;;;;;5056229;28;20249;-83